sensor_id;sensor_type;location;lat;lon;timestamp;temperature;humidity
20598;DHT22;10457;48.770;11.446;2022-09-09T00:05:24;13.80;99.90
20598;DHT22;10457;48.770;11.446;2022-09-09T00:10:53;13.70;99.90
20598;DHT22;10457;48.770;11.446;2022-09-09T00:16:22;13.70;99.90
20598;DHT22;10457;48.770;11.446;2022-09-09T00:21:48;13.70;99.90
20598;DHT22;10457;48.770;11.446;2022-09-09T00:27:23;13.80;99.90
20598;DHT22;10457;48.770;11.446;2022-09-09T00:32:53;13.70;99.90
20598;DHT22;10457;48.770;11.446;2022-09-09T00:38:23;13.70;99.90
20598;DHT22;10457;48.770;11.446;2022-09-09T00:43:54;13.70;99.90
20598;DHT22;10457;48.770;11.446;2022-09-09T00:49:27;13.60;99.90
20598;DHT22;10457;48.770;11.446;2022-09-09T00:55:05;13.60;99.90
20598;DHT22;10457;48.770;11.446;2022-09-09T01:00:31;13.50;99.90
20598;DHT22;10457;48.770;11.446;2022-09-09T01:06:12;13.50;99.90
20598;DHT22;10457;48.770;11.446;2022-09-09T01:11:42;13.40;99.90
20598;DHT22;10457;48.770;11.446;2022-09-09T01:17:14;13.40;99.90
20598;DHT22;10457;48.770;11.446;2022-09-09T01:22:55;13.40;99.90
20598;DHT22;10457;48.770;11.446;2022-09-09T01:28:28;13.40;99.90
20598;DHT22;10457;48.770;11.446;2022-09-09T01:33:56;13.30;99.90
20598;DHT22;10457;48.770;11.446;2022-09-09T01:39:18;13.30;99.90
20598;DHT22;10457;48.770;11.446;2022-09-09T01:44:46;13.30;99.90
20598;DHT22;10457;48.770;11.446;2022-09-09T01:50:10;13.40;99.90
20598;DHT22;10457;48.770;11.446;2022-09-09T01:55:40;13.30;99.90
20598;DHT22;10457;48.770;11.446;2022-09-09T02:01:15;13.30;99.90
20598;DHT22;10457;48.770;11.446;2022-09-09T02:06:45;13.40;99.90
20598;DHT22;10457;48.770;11.446;2022-09-09T02:12:19;13.40;99.90
20598;DHT22;10457;48.770;11.446;2022-09-09T02:17:51;13.20;99.90
20598;DHT22;10457;48.770;11.446;2022-09-09T02:23:14;13.10;99.90
20598;DHT22;10457;48.770;11.446;2022-09-09T02:28:38;13.20;99.90
20598;DHT22;10457;48.770;11.446;2022-09-09T02:34:05;13.20;99.90
20598;DHT22;10457;48.770;11.446;2022-09-09T02:39:28;13.20;99.90
20598;DHT22;10457;48.770;11.446;2022-09-09T02:44:49;13.10;99.90
20598;DHT22;10457;48.770;11.446;2022-09-09T02:50:17;13.00;99.90
20598;DHT22;10457;48.770;11.446;2022-09-09T02:55:45;12.90;99.90
20598;DHT22;10457;48.770;11.446;2022-09-09T03:01:10;13.00;99.90
20598;DHT22;10457;48.770;11.446;2022-09-09T03:06:33;12.90;99.90
20598;DHT22;10457;48.770;11.446;2022-09-09T03:12:05;13.00;99.90
20598;DHT22;10457;48.770;11.446;2022-09-09T03:17:28;12.90;99.90
20598;DHT22;10457;48.770;11.446;2022-09-09T03:22:52;12.80;99.90
20598;DHT22;10457;48.770;11.446;2022-09-09T03:28:14;12.80;99.90
20598;DHT22;10457;48.770;11.446;2022-09-09T03:33:36;12.90;99.90
20598;DHT22;10457;48.770;11.446;2022-09-09T03:39:01;12.90;99.90
20598;DHT22;10457;48.770;11.446;2022-09-09T03:44:24;12.90;99.90
20598;DHT22;10457;48.770;11.446;2022-09-09T03:49:47;12.90;99.90
20598;DHT22;10457;48.770;11.446;2022-09-09T03:55:11;12.90;99.90
20598;DHT22;10457;48.770;11.446;2022-09-09T04:00:32;12.90;99.90
20598;DHT22;10457;48.770;11.446;2022-09-09T04:05:55;13.00;99.90
20598;DHT22;10457;48.770;11.446;2022-09-09T04:11:21;13.00;99.90
20598;DHT22;10457;48.770;11.446;2022-09-09T04:16:46;13.00;99.90
20598;DHT22;10457;48.770;11.446;2022-09-09T04:22:09;13.20;99.90
20598;DHT22;10457;48.770;11.446;2022-09-09T04:27:32;13.20;99.90
20598;DHT22;10457;48.770;11.446;2022-09-09T04:32:54;13.20;99.90
20598;DHT22;10457;48.770;11.446;2022-09-09T04:38:17;13.10;99.90
20598;DHT22;10457;48.770;11.446;2022-09-09T04:43:40;13.10;99.90
20598;DHT22;10457;48.770;11.446;2022-09-09T04:49:03;13.10;99.90
20598;DHT22;10457;48.770;11.446;2022-09-09T04:54:27;13.00;99.90
20598;DHT22;10457;48.770;11.446;2022-09-09T04:59:49;13.00;99.90
20598;DHT22;10457;48.770;11.446;2022-09-09T05:05:11;13.00;99.90
20598;DHT22;10457;48.770;11.446;2022-09-09T05:10:34;13.10;99.90
20598;DHT22;10457;48.770;11.446;2022-09-09T05:16:00;13.20;99.90
20598;DHT22;10457;48.770;11.446;2022-09-09T05:21:23;13.40;99.90
20598;DHT22;10457;48.770;11.446;2022-09-09T05:26:46;13.60;99.90
20598;DHT22;10457;48.770;11.446;2022-09-09T05:32:10;13.90;99.90
20598;DHT22;10457;48.770;11.446;2022-09-09T05:37:31;14.80;99.90
20598;DHT22;10457;48.770;11.446;2022-09-09T05:42:53;14.90;99.90
20598;DHT22;10457;48.770;11.446;2022-09-09T05:48:16;14.70;99.90
20598;DHT22;10457;48.770;11.446;2022-09-09T05:53:38;14.80;99.90
20598;DHT22;10457;48.770;11.446;2022-09-09T05:59:00;14.80;99.90
20598;DHT22;10457;48.770;11.446;2022-09-09T06:04:23;14.60;99.90
20598;DHT22;10457;48.770;11.446;2022-09-09T06:09:45;14.80;99.90
20598;DHT22;10457;48.770;11.446;2022-09-09T06:15:08;14.90;99.90
20598;DHT22;10457;48.770;11.446;2022-09-09T06:20:31;14.90;99.90
20598;DHT22;10457;48.770;11.446;2022-09-09T06:26:02;14.90;99.90
20598;DHT22;10457;48.770;11.446;2022-09-09T06:31:27;15.00;99.90
20598;DHT22;10457;48.770;11.446;2022-09-09T06:36:53;15.00;99.90
20598;DHT22;10457;48.770;11.446;2022-09-09T06:42:17;14.80;99.90
20598;DHT22;10457;48.770;11.446;2022-09-09T06:47:39;14.90;99.90
20598;DHT22;10457;48.770;11.446;2022-09-09T06:53:03;14.60;99.90
20598;DHT22;10457;48.770;11.446;2022-09-09T06:58:24;14.60;99.90
20598;DHT22;10457;48.770;11.446;2022-09-09T07:03:50;14.50;99.90
20598;DHT22;10457;48.770;11.446;2022-09-09T07:09:14;14.20;99.90
20598;DHT22;10457;48.770;11.446;2022-09-09T07:14:39;14.30;99.90
20598;DHT22;10457;48.770;11.446;2022-09-09T07:20:03;14.10;99.90
20598;DHT22;10457;48.770;11.446;2022-09-09T07:25:26;14.00;99.90
20598;DHT22;10457;48.770;11.446;2022-09-09T07:30:54;14.10;99.90
20598;DHT22;10457;48.770;11.446;2022-09-09T07:36:18;14.20;99.90
20598;DHT22;10457;48.770;11.446;2022-09-09T07:41:45;14.20;99.90
20598;DHT22;10457;48.770;11.446;2022-09-09T07:47:10;14.60;99.90
20598;DHT22;10457;48.770;11.446;2022-09-09T07:52:38;15.00;99.90
20598;DHT22;10457;48.770;11.446;2022-09-09T07:58:02;15.20;99.90
20598;DHT22;10457;48.770;11.446;2022-09-09T08:03:24;15.70;99.90
20598;DHT22;10457;48.770;11.446;2022-09-09T08:08:50;17.20;99.90
20598;DHT22;10457;48.770;11.446;2022-09-09T08:14:13;17.90;99.90
20598;DHT22;10457;48.770;11.446;2022-09-09T08:19:35;17.60;99.90
20598;DHT22;10457;48.770;11.446;2022-09-09T08:25:03;17.80;99.90
20598;DHT22;10457;48.770;11.446;2022-09-09T08:30:28;18.50;99.90
20598;DHT22;10457;48.770;11.446;2022-09-09T08:35:50;19.50;98.60
20598;DHT22;10457;48.770;11.446;2022-09-09T08:47:42;19.20;90.30
20598;DHT22;10457;48.770;11.446;2022-09-09T08:53:17;18.70;90.20
20598;DHT22;10457;48.770;11.446;2022-09-09T08:58:47;18.60;92.20
20598;DHT22;10457;48.770;11.446;2022-09-09T09:04:26;19.10;88.10
20598;DHT22;10457;48.770;11.446;2022-09-09T09:10:00;19.30;88.30
20598;DHT22;10457;48.770;11.446;2022-09-09T09:15:32;19.30;88.80
20598;DHT22;10457;48.770;11.446;2022-09-09T09:21:05;19.10;90.80
20598;DHT22;10457;48.770;11.446;2022-09-09T09:26:34;19.20;87.90
20598;DHT22;10457;48.770;11.446;2022-09-09T09:31:59;20.00;86.50
20598;DHT22;10457;48.770;11.446;2022-09-09T09:37:27;20.80;78.80
20598;DHT22;10457;48.770;11.446;2022-09-09T09:42:53;22.00;76.50
20598;DHT22;10457;48.770;11.446;2022-09-09T09:48:15;22.70;67.90
20598;DHT22;10457;48.770;11.446;2022-09-09T09:53:39;24.00;66.40
20598;DHT22;10457;48.770;11.446;2022-09-09T09:59:04;25.10;59.80
20598;DHT22;10457;48.770;11.446;2022-09-09T10:04:29;24.90;58.90
20598;DHT22;10457;48.770;11.446;2022-09-09T10:09:56;25.80;57.10
20598;DHT22;10457;48.770;11.446;2022-09-09T10:15:29;26.20;54.60
20598;DHT22;10457;48.770;11.446;2022-09-09T10:20:58;25.70;54.90
20598;DHT22;10457;48.770;11.446;2022-09-09T10:26:37;25.30;56.90
20598;DHT22;10457;48.770;11.446;2022-09-09T10:32:10;24.30;58.50
20598;DHT22;10457;48.770;11.446;2022-09-09T10:43:51;26.40;53.50
20598;DHT22;10457;48.770;11.446;2022-09-09T10:49:43;27.00;51.50
20598;DHT22;10457;48.770;11.446;2022-09-09T10:55:16;27.70;49.60
20598;DHT22;10457;48.770;11.446;2022-09-09T11:00:44;27.70;48.40
20598;DHT22;10457;48.770;11.446;2022-09-09T11:06:12;28.70;47.10
20598;DHT22;10457;48.770;11.446;2022-09-09T11:11:41;29.50;45.90
20598;DHT22;10457;48.770;11.446;2022-09-09T11:17:11;26.40;51.60
20598;DHT22;10457;48.770;11.446;2022-09-09T11:22:37;24.70;55.80
20598;DHT22;10457;48.770;11.446;2022-09-09T11:28:25;24.00;56.90
20598;DHT22;10457;48.770;11.446;2022-09-09T11:34:17;23.30;58.70
20598;DHT22;10457;48.770;11.446;2022-09-09T11:40:07;24.40;58.90
20598;DHT22;10457;48.770;11.446;2022-09-09T11:45:31;25.60;55.80
20598;DHT22;10457;48.770;11.446;2022-09-09T11:51:04;28.30;49.40
20598;DHT22;10457;48.770;11.446;2022-09-09T11:56:29;26.90;52.00
20598;DHT22;10457;48.770;11.446;2022-09-09T12:01:55;23.50;59.30
20598;DHT22;10457;48.770;11.446;2022-09-09T12:07:31;23.00;63.00
20598;DHT22;10457;48.770;11.446;2022-09-09T12:12:55;23.30;60.90
20598;DHT22;10457;48.770;11.446;2022-09-09T12:18:22;22.80;62.60
20598;DHT22;10457;48.770;11.446;2022-09-09T12:23:49;22.70;62.80
20598;DHT22;10457;48.770;11.446;2022-09-09T12:29:22;24.60;59.60
20598;DHT22;10457;48.770;11.446;2022-09-09T12:34:48;27.60;51.60
20598;DHT22;10457;48.770;11.446;2022-09-09T12:40:22;27.10;51.20
20598;DHT22;10457;48.770;11.446;2022-09-09T12:45:44;24.90;56.80
20598;DHT22;10457;48.770;11.446;2022-09-09T12:51:17;23.80;57.60
20598;DHT22;10457;48.770;11.446;2022-09-09T12:56:46;24.10;58.10
20598;DHT22;10457;48.770;11.446;2022-09-09T13:02:26;24.50;58.40
20598;DHT22;10457;48.770;11.446;2022-09-09T13:07:48;27.20;52.30
20598;DHT22;10457;48.770;11.446;2022-09-09T13:13:16;29.10;48.20
20598;DHT22;10457;48.770;11.446;2022-09-09T13:18:40;29.30;47.20
20598;DHT22;10457;48.770;11.446;2022-09-09T13:24:05;30.30;45.70
20598;DHT22;10457;48.770;11.446;2022-09-09T13:29:29;29.50;45.80
20598;DHT22;10457;48.770;11.446;2022-09-09T13:34:52;29.70;45.90
20598;DHT22;10457;48.770;11.446;2022-09-09T13:40:18;27.30;50.20
20598;DHT22;10457;48.770;11.446;2022-09-09T13:45:53;25.00;54.40
20598;DHT22;10457;48.770;11.446;2022-09-09T13:51:29;28.20;49.60
20598;DHT22;10457;48.770;11.446;2022-09-09T13:56:54;28.10;48.50
20598;DHT22;10457;48.770;11.446;2022-09-09T14:02:17;26.40;50.40
20598;DHT22;10457;48.770;11.446;2022-09-09T14:07:41;24.60;54.40
20598;DHT22;10457;48.770;11.446;2022-09-09T14:13:02;23.50;56.30
20598;DHT22;10457;48.770;11.446;2022-09-09T14:18:26;22.30;57.90
20598;DHT22;10457;48.770;11.446;2022-09-09T14:23:47;22.10;58.20
20598;DHT22;10457;48.770;11.446;2022-09-09T14:29:08;21.80;59.60
20598;DHT22;10457;48.770;11.446;2022-09-09T14:34:31;21.40;63.00
20598;DHT22;10457;48.770;11.446;2022-09-09T14:39:53;21.10;63.40
20598;DHT22;10457;48.770;11.446;2022-09-09T14:45:16;20.70;65.40
20598;DHT22;10457;48.770;11.446;2022-09-09T14:50:39;20.60;66.30
20598;DHT22;10457;48.770;11.446;2022-09-09T14:56:05;20.50;65.10
20598;DHT22;10457;48.770;11.446;2022-09-09T15:01:29;20.40;66.40
20598;DHT22;10457;48.770;11.446;2022-09-09T15:06:53;20.40;66.90
20598;DHT22;10457;48.770;11.446;2022-09-09T15:12:15;20.30;68.30
20598;DHT22;10457;48.770;11.446;2022-09-09T15:17:38;20.20;69.00
20598;DHT22;10457;48.770;11.446;2022-09-09T15:23:01;20.30;69.00
20598;DHT22;10457;48.770;11.446;2022-09-09T15:28:23;20.40;68.80
20598;DHT22;10457;48.770;11.446;2022-09-09T15:33:47;20.40;70.00
20598;DHT22;10457;48.770;11.446;2022-09-09T15:39:12;20.40;72.90
20598;DHT22;10457;48.770;11.446;2022-09-09T15:44:39;20.30;71.20
20598;DHT22;10457;48.770;11.446;2022-09-09T15:50:02;20.40;69.80
20598;DHT22;10457;48.770;11.446;2022-09-09T15:55:25;20.30;68.30
20598;DHT22;10457;48.770;11.446;2022-09-09T16:00:46;20.40;65.50
20598;DHT22;10457;48.770;11.446;2022-09-09T16:06:09;20.50;64.10
20598;DHT22;10457;48.770;11.446;2022-09-09T16:11:33;20.40;62.40
20598;DHT22;10457;48.770;11.446;2022-09-09T16:16:56;20.50;62.20
20598;DHT22;10457;48.770;11.446;2022-09-09T16:22:17;20.30;61.10
20598;DHT22;10457;48.770;11.446;2022-09-09T16:27:40;20.00;59.60
20598;DHT22;10457;48.770;11.446;2022-09-09T16:33:03;19.70;60.70
20598;DHT22;10457;48.770;11.446;2022-09-09T16:38:24;19.60;62.00
20598;DHT22;10457;48.770;11.446;2022-09-09T16:43:47;19.50;60.50
20598;DHT22;10457;48.770;11.446;2022-09-09T16:49:14;19.30;61.00
20598;DHT22;10457;48.770;11.446;2022-09-09T16:54:36;19.30;59.50
20598;DHT22;10457;48.770;11.446;2022-09-09T16:59:59;19.10;63.50
20598;DHT22;10457;48.770;11.446;2022-09-09T17:05:20;18.90;65.90
20598;DHT22;10457;48.770;11.446;2022-09-09T17:10:43;18.80;68.30
20598;DHT22;10457;48.770;11.446;2022-09-09T17:16:07;18.60;75.10
20598;DHT22;10457;48.770;11.446;2022-09-09T17:21:29;17.70;86.60
20598;DHT22;10457;48.770;11.446;2022-09-09T17:26:51;17.00;97.20
20598;DHT22;10457;48.770;11.446;2022-09-09T17:32:14;16.60;99.90
20598;DHT22;10457;48.770;11.446;2022-09-09T17:37:35;16.30;99.90
20598;DHT22;10457;48.770;11.446;2022-09-09T17:42:57;16.20;99.90
20598;DHT22;10457;48.770;11.446;2022-09-09T17:48:20;16.20;99.90
20598;DHT22;10457;48.770;11.446;2022-09-09T17:53:43;16.20;99.90
20598;DHT22;10457;48.770;11.446;2022-09-09T17:59:07;16.20;99.90
20598;DHT22;10457;48.770;11.446;2022-09-09T18:04:30;16.20;99.90
20598;DHT22;10457;48.770;11.446;2022-09-09T18:09:52;16.10;99.90
20598;DHT22;10457;48.770;11.446;2022-09-09T18:15:13;16.00;99.90
20598;DHT22;10457;48.770;11.446;2022-09-09T18:20:36;16.00;99.90
20598;DHT22;10457;48.770;11.446;2022-09-09T18:25:57;15.80;99.90
20598;DHT22;10457;48.770;11.446;2022-09-09T18:31:22;15.80;99.90
20598;DHT22;10457;48.770;11.446;2022-09-09T18:36:49;15.70;99.90
20598;DHT22;10457;48.770;11.446;2022-09-09T18:42:12;15.70;99.90
20598;DHT22;10457;48.770;11.446;2022-09-09T18:47:34;15.60;99.90
20598;DHT22;10457;48.770;11.446;2022-09-09T18:52:57;15.60;99.90
20598;DHT22;10457;48.770;11.446;2022-09-09T18:58:18;15.60;99.90
20598;DHT22;10457;48.770;11.446;2022-09-09T19:03:41;15.60;99.90
20598;DHT22;10457;48.770;11.446;2022-09-09T19:09:03;15.50;99.90
20598;DHT22;10457;48.770;11.446;2022-09-09T19:14:25;15.50;99.90
20598;DHT22;10457;48.770;11.446;2022-09-09T19:19:48;15.50;99.90
20598;DHT22;10457;48.770;11.446;2022-09-09T19:25:11;15.40;99.90
20598;DHT22;10457;48.770;11.446;2022-09-09T19:30:34;15.30;99.90
20598;DHT22;10457;48.770;11.446;2022-09-09T19:35:57;15.20;99.90
20598;DHT22;10457;48.770;11.446;2022-09-09T19:41:24;15.10;99.90
20598;DHT22;10457;48.770;11.446;2022-09-09T19:46:46;15.20;99.90
20598;DHT22;10457;48.770;11.446;2022-09-09T19:52:09;15.20;99.90
20598;DHT22;10457;48.770;11.446;2022-09-09T19:57:32;15.20;99.90
20598;DHT22;10457;48.770;11.446;2022-09-09T20:02:54;15.20;99.90
20598;DHT22;10457;48.770;11.446;2022-09-09T20:08:18;15.20;99.90
20598;DHT22;10457;48.770;11.446;2022-09-09T20:13:41;15.20;99.90
20598;DHT22;10457;48.770;11.446;2022-09-09T20:19:05;15.20;99.90
20598;DHT22;10457;48.770;11.446;2022-09-09T20:24:27;15.20;99.90
20598;DHT22;10457;48.770;11.446;2022-09-09T20:29:50;15.10;99.90
20598;DHT22;10457;48.770;11.446;2022-09-09T20:35:11;15.10;99.90
20598;DHT22;10457;48.770;11.446;2022-09-09T20:40:35;15.20;99.90
20598;DHT22;10457;48.770;11.446;2022-09-09T20:46:02;15.10;99.90
20598;DHT22;10457;48.770;11.446;2022-09-09T20:51:24;14.90;99.90
20598;DHT22;10457;48.770;11.446;2022-09-09T20:56:49;14.70;99.90
20598;DHT22;10457;48.770;11.446;2022-09-09T21:02:12;14.70;99.90
20598;DHT22;10457;48.770;11.446;2022-09-09T21:07:33;14.70;99.90
20598;DHT22;10457;48.770;11.446;2022-09-09T21:12:55;14.60;99.90
20598;DHT22;10457;48.770;11.446;2022-09-09T21:18:18;14.50;99.90
20598;DHT22;10457;48.770;11.446;2022-09-09T21:23:41;14.50;99.90
20598;DHT22;10457;48.770;11.446;2022-09-09T21:29:03;14.40;99.90
20598;DHT22;10457;48.770;11.446;2022-09-09T21:34:26;14.40;99.90
20598;DHT22;10457;48.770;11.446;2022-09-09T21:39:47;14.30;99.90
20598;DHT22;10457;48.770;11.446;2022-09-09T21:45:09;14.30;99.90
20598;DHT22;10457;48.770;11.446;2022-09-09T21:50:35;14.30;99.90
20598;DHT22;10457;48.770;11.446;2022-09-09T21:56:00;14.30;99.90
20598;DHT22;10457;48.770;11.446;2022-09-09T22:01:22;14.30;99.90
20598;DHT22;10457;48.770;11.446;2022-09-09T22:06:46;14.20;99.90
20598;DHT22;10457;48.770;11.446;2022-09-09T22:12:08;14.20;99.90
20598;DHT22;10457;48.770;11.446;2022-09-09T22:17:29;14.10;99.90
20598;DHT22;10457;48.770;11.446;2022-09-09T22:22:52;14.20;99.90
20598;DHT22;10457;48.770;11.446;2022-09-09T22:28:13;14.20;99.90
20598;DHT22;10457;48.770;11.446;2022-09-09T22:33:35;14.40;99.90
20598;DHT22;10457;48.770;11.446;2022-09-09T22:38:58;14.30;99.90
20598;DHT22;10457;48.770;11.446;2022-09-09T22:44:21;14.10;99.90
20598;DHT22;10457;48.770;11.446;2022-09-09T22:49:42;14.10;99.90
20598;DHT22;10457;48.770;11.446;2022-09-09T22:55:07;14.20;99.90
20598;DHT22;10457;48.770;11.446;2022-09-09T23:00:28;14.20;99.90
20598;DHT22;10457;48.770;11.446;2022-09-09T23:05:54;14.10;99.90
20598;DHT22;10457;48.770;11.446;2022-09-09T23:11:17;14.00;99.90
20598;DHT22;10457;48.770;11.446;2022-09-09T23:16:42;14.00;99.90
20598;DHT22;10457;48.770;11.446;2022-09-09T23:22:05;14.10;99.90
20598;DHT22;10457;48.770;11.446;2022-09-09T23:27:28;14.10;99.90
20598;DHT22;10457;48.770;11.446;2022-09-09T23:32:50;14.00;99.90
20598;DHT22;10457;48.770;11.446;2022-09-09T23:38:11;13.80;99.90
20598;DHT22;10457;48.770;11.446;2022-09-09T23:43:34;13.80;99.90
20598;DHT22;10457;48.770;11.446;2022-09-09T23:48:58;13.70;99.90
20598;DHT22;10457;48.770;11.446;2022-09-09T23:54:21;13.70;99.90
20598;DHT22;10457;48.770;11.446;2022-09-09T23:59:45;13.60;99.90
